sensor_id;sensor_type;location;lat;lon;timestamp;temperature;humidity
19908;DHT22;10116;53.112;7.356;2023-11-21T00:02:16;24.20;99.90
19908;DHT22;10116;53.112;7.356;2023-11-21T00:04:42;24.20;99.90
19908;DHT22;10116;53.112;7.356;2023-11-21T00:07:07;24.20;99.90
19908;DHT22;10116;53.112;7.356;2023-11-21T00:09:33;24.10;99.90
19908;DHT22;10116;53.112;7.356;2023-11-21T00:11:59;24.10;99.90
19908;DHT22;10116;53.112;7.356;2023-11-21T00:14:25;24.10;99.90
19908;DHT22;10116;53.112;7.356;2023-11-21T00:16:50;24.10;99.90
19908;DHT22;10116;53.112;7.356;2023-11-21T00:19:16;24.10;99.90
19908;DHT22;10116;53.112;7.356;2023-11-21T00:21:42;24.10;99.90
19908;DHT22;10116;53.112;7.356;2023-11-21T00:24:10;24.10;99.90
19908;DHT22;10116;53.112;7.356;2023-11-21T00:26:35;24.10;99.90
19908;DHT22;10116;53.112;7.356;2023-11-21T00:29:03;24.10;99.90
19908;DHT22;10116;53.112;7.356;2023-11-21T00:31:29;24.10;99.90
19908;DHT22;10116;53.112;7.356;2023-11-21T00:33:56;24.10;99.90
19908;DHT22;10116;53.112;7.356;2023-11-21T00:36:21;24.10;99.90
19908;DHT22;10116;53.112;7.356;2023-11-21T00:38:47;24.10;99.90
19908;DHT22;10116;53.112;7.356;2023-11-21T00:41:14;24.10;99.90
19908;DHT22;10116;53.112;7.356;2023-11-21T00:43:39;24.10;99.90
19908;DHT22;10116;53.112;7.356;2023-11-21T00:46:06;24.10;99.90
19908;DHT22;10116;53.112;7.356;2023-11-21T00:48:34;24.10;99.90
19908;DHT22;10116;53.112;7.356;2023-11-21T00:51:00;24.10;99.90
19908;DHT22;10116;53.112;7.356;2023-11-21T00:53:26;24.10;99.90
19908;DHT22;10116;53.112;7.356;2023-11-21T00:55:52;24.10;99.90
19908;DHT22;10116;53.112;7.356;2023-11-21T00:58:23;24.10;99.90
19908;DHT22;10116;53.112;7.356;2023-11-21T01:00:48;24.10;99.90
19908;DHT22;10116;53.112;7.356;2023-11-21T01:03:14;24.10;99.90
19908;DHT22;10116;53.112;7.356;2023-11-21T01:05:40;24.10;99.90
19908;DHT22;10116;53.112;7.356;2023-11-21T01:08:05;24.10;99.90
19908;DHT22;10116;53.112;7.356;2023-11-21T01:10:31;24.10;99.90
19908;DHT22;10116;53.112;7.356;2023-11-21T01:12:57;24.10;99.90
19908;DHT22;10116;53.112;7.356;2023-11-21T01:15:23;24.10;99.90
19908;DHT22;10116;53.112;7.356;2023-11-21T01:17:51;24.10;99.90
19908;DHT22;10116;53.112;7.356;2023-11-21T01:20:17;24.10;99.90
19908;DHT22;10116;53.112;7.356;2023-11-21T01:22:43;24.10;99.90
19908;DHT22;10116;53.112;7.356;2023-11-21T01:25:10;24.10;99.90
19908;DHT22;10116;53.112;7.356;2023-11-21T01:27:36;24.10;99.90
19908;DHT22;10116;53.112;7.356;2023-11-21T01:30:03;24.10;99.90
19908;DHT22;10116;53.112;7.356;2023-11-21T01:32:29;24.10;99.90
19908;DHT22;10116;53.112;7.356;2023-11-21T01:34:54;24.10;99.90
19908;DHT22;10116;53.112;7.356;2023-11-21T01:37:23;24.10;99.90
19908;DHT22;10116;53.112;7.356;2023-11-21T01:39:49;24.10;99.90
19908;DHT22;10116;53.112;7.356;2023-11-21T01:42:15;24.10;99.90
19908;DHT22;10116;53.112;7.356;2023-11-21T01:44:40;24.10;99.90
19908;DHT22;10116;53.112;7.356;2023-11-21T01:47:06;24.10;99.90
19908;DHT22;10116;53.112;7.356;2023-11-21T01:49:33;24.10;99.90
19908;DHT22;10116;53.112;7.356;2023-11-21T01:51:59;24.10;99.90
19908;DHT22;10116;53.112;7.356;2023-11-21T01:54:25;24.10;99.90
19908;DHT22;10116;53.112;7.356;2023-11-21T01:56:52;24.10;99.90
19908;DHT22;10116;53.112;7.356;2023-11-21T01:59:21;24.10;99.90
19908;DHT22;10116;53.112;7.356;2023-11-21T02:01:48;24.10;99.90
19908;DHT22;10116;53.112;7.356;2023-11-21T02:04:16;24.10;99.90
19908;DHT22;10116;53.112;7.356;2023-11-21T02:06:41;24.10;99.90
19908;DHT22;10116;53.112;7.356;2023-11-21T02:09:07;24.10;99.90
19908;DHT22;10116;53.112;7.356;2023-11-21T02:11:34;24.10;99.90
19908;DHT22;10116;53.112;7.356;2023-11-21T02:14:00;24.10;99.90
19908;DHT22;10116;53.112;7.356;2023-11-21T02:16:26;24.10;99.90
19908;DHT22;10116;53.112;7.356;2023-11-21T02:18:53;24.10;99.90
19908;DHT22;10116;53.112;7.356;2023-11-21T02:21:18;24.10;99.90
19908;DHT22;10116;53.112;7.356;2023-11-21T02:23:44;24.10;99.90
19908;DHT22;10116;53.112;7.356;2023-11-21T02:26:12;24.10;99.90
19908;DHT22;10116;53.112;7.356;2023-11-21T02:28:39;24.10;99.90
19908;DHT22;10116;53.112;7.356;2023-11-21T02:31:05;24.10;99.90
19908;DHT22;10116;53.112;7.356;2023-11-21T02:33:33;24.10;99.90
19908;DHT22;10116;53.112;7.356;2023-11-21T02:36:00;24.10;99.90
19908;DHT22;10116;53.112;7.356;2023-11-21T02:38:26;24.10;99.90
19908;DHT22;10116;53.112;7.356;2023-11-21T02:40:51;24.10;99.90
19908;DHT22;10116;53.112;7.356;2023-11-21T02:43:17;24.10;99.90
19908;DHT22;10116;53.112;7.356;2023-11-21T02:45:43;24.10;99.90
19908;DHT22;10116;53.112;7.356;2023-11-21T02:48:08;24.10;99.90
19908;DHT22;10116;53.112;7.356;2023-11-21T02:50:34;24.10;99.90
19908;DHT22;10116;53.112;7.356;2023-11-21T02:53:00;24.10;99.90
19908;DHT22;10116;53.112;7.356;2023-11-21T02:55:27;24.10;99.90
19908;DHT22;10116;53.112;7.356;2023-11-21T02:57:53;24.10;99.90
19908;DHT22;10116;53.112;7.356;2023-11-21T03:00:19;24.10;99.90
19908;DHT22;10116;53.112;7.356;2023-11-21T03:02:45;24.10;99.90
19908;DHT22;10116;53.112;7.356;2023-11-21T03:05:12;24.10;99.90
19908;DHT22;10116;53.112;7.356;2023-11-21T03:07:38;24.10;99.90
19908;DHT22;10116;53.112;7.356;2023-11-21T03:10:06;24.10;99.90
19908;DHT22;10116;53.112;7.356;2023-11-21T03:12:32;24.10;99.90
19908;DHT22;10116;53.112;7.356;2023-11-21T03:14:58;24.10;99.90
19908;DHT22;10116;53.112;7.356;2023-11-21T03:17:23;24.10;99.90
19908;DHT22;10116;53.112;7.356;2023-11-21T03:19:49;24.00;99.90
19908;DHT22;10116;53.112;7.356;2023-11-21T03:22:15;24.10;99.90
19908;DHT22;10116;53.112;7.356;2023-11-21T03:24:41;24.10;99.90
19908;DHT22;10116;53.112;7.356;2023-11-21T03:27:06;24.10;99.90
19908;DHT22;10116;53.112;7.356;2023-11-21T03:29:32;24.00;99.90
19908;DHT22;10116;53.112;7.356;2023-11-21T03:31:57;24.10;99.90
19908;DHT22;10116;53.112;7.356;2023-11-21T03:34:25;24.00;99.90
19908;DHT22;10116;53.112;7.356;2023-11-21T03:36:53;24.00;99.90
19908;DHT22;10116;53.112;7.356;2023-11-21T03:39:20;24.00;99.90
19908;DHT22;10116;53.112;7.356;2023-11-21T03:41:46;24.00;99.90
19908;DHT22;10116;53.112;7.356;2023-11-21T03:44:12;24.00;99.90
19908;DHT22;10116;53.112;7.356;2023-11-21T03:46:37;24.00;99.90
19908;DHT22;10116;53.112;7.356;2023-11-21T03:49:03;24.00;99.90
19908;DHT22;10116;53.112;7.356;2023-11-21T03:51:29;24.00;99.90
19908;DHT22;10116;53.112;7.356;2023-11-21T03:53:54;24.00;99.90
19908;DHT22;10116;53.112;7.356;2023-11-21T03:56:20;24.00;99.90
19908;DHT22;10116;53.112;7.356;2023-11-21T03:58:47;24.00;99.90
19908;DHT22;10116;53.112;7.356;2023-11-21T04:01:23;24.00;99.90
19908;DHT22;10116;53.112;7.356;2023-11-21T04:03:49;24.00;99.90
19908;DHT22;10116;53.112;7.356;2023-11-21T04:06:16;24.00;99.90
19908;DHT22;10116;53.112;7.356;2023-11-21T04:08:46;24.00;99.90
19908;DHT22;10116;53.112;7.356;2023-11-21T04:11:12;24.00;99.90
19908;DHT22;10116;53.112;7.356;2023-11-21T04:13:41;24.00;99.90
19908;DHT22;10116;53.112;7.356;2023-11-21T04:16:08;24.00;99.90
19908;DHT22;10116;53.112;7.356;2023-11-21T04:18:36;24.00;99.90
19908;DHT22;10116;53.112;7.356;2023-11-21T04:21:02;24.00;99.90
19908;DHT22;10116;53.112;7.356;2023-11-21T04:23:29;24.00;99.90
19908;DHT22;10116;53.112;7.356;2023-11-21T04:25:54;24.00;99.90
19908;DHT22;10116;53.112;7.356;2023-11-21T04:28:22;24.00;99.90
19908;DHT22;10116;53.112;7.356;2023-11-21T04:30:48;24.00;99.90
19908;DHT22;10116;53.112;7.356;2023-11-21T04:33:14;24.10;99.90
19908;DHT22;10116;53.112;7.356;2023-11-21T04:35:39;24.10;99.90
19908;DHT22;10116;53.112;7.356;2023-11-21T04:38:05;24.20;99.90
19908;DHT22;10116;53.112;7.356;2023-11-21T04:40:30;24.20;99.90
19908;DHT22;10116;53.112;7.356;2023-11-21T04:42:56;24.20;99.90
19908;DHT22;10116;53.112;7.356;2023-11-21T04:45:22;24.30;99.90
19908;DHT22;10116;53.112;7.356;2023-11-21T04:47:48;24.30;99.90
19908;DHT22;10116;53.112;7.356;2023-11-21T04:50:14;24.30;99.90
19908;DHT22;10116;53.112;7.356;2023-11-21T04:52:40;24.30;99.90
19908;DHT22;10116;53.112;7.356;2023-11-21T04:55:05;24.30;99.90
19908;DHT22;10116;53.112;7.356;2023-11-21T04:57:38;24.30;99.90
19908;DHT22;10116;53.112;7.356;2023-11-21T05:00:07;24.30;99.90
19908;DHT22;10116;53.112;7.356;2023-11-21T05:02:33;24.30;99.90
19908;DHT22;10116;53.112;7.356;2023-11-21T05:05:03;24.30;99.90
19908;DHT22;10116;53.112;7.356;2023-11-21T05:07:32;24.30;99.90
19908;DHT22;10116;53.112;7.356;2023-11-21T05:09:57;24.30;99.90
19908;DHT22;10116;53.112;7.356;2023-11-21T05:12:24;24.30;99.90
19908;DHT22;10116;53.112;7.356;2023-11-21T05:14:50;24.30;99.90
19908;DHT22;10116;53.112;7.356;2023-11-21T05:17:16;24.30;99.90
19908;DHT22;10116;53.112;7.356;2023-11-21T05:19:41;24.30;99.90
19908;DHT22;10116;53.112;7.356;2023-11-21T05:22:08;24.30;99.90
19908;DHT22;10116;53.112;7.356;2023-11-21T05:24:34;24.30;99.90
19908;DHT22;10116;53.112;7.356;2023-11-21T05:27:00;24.30;99.90
19908;DHT22;10116;53.112;7.356;2023-11-21T05:29:26;24.30;99.90
19908;DHT22;10116;53.112;7.356;2023-11-21T05:31:52;24.30;99.90
19908;DHT22;10116;53.112;7.356;2023-11-21T05:34:18;24.30;99.90
19908;DHT22;10116;53.112;7.356;2023-11-21T05:36:45;24.30;99.90
19908;DHT22;10116;53.112;7.356;2023-11-21T05:39:11;24.30;99.90
19908;DHT22;10116;53.112;7.356;2023-11-21T05:41:37;24.30;99.90
19908;DHT22;10116;53.112;7.356;2023-11-21T05:44:03;24.30;99.90
19908;DHT22;10116;53.112;7.356;2023-11-21T05:46:28;24.30;99.90
19908;DHT22;10116;53.112;7.356;2023-11-21T05:48:54;24.30;99.90
19908;DHT22;10116;53.112;7.356;2023-11-21T05:51:20;24.30;99.90
19908;DHT22;10116;53.112;7.356;2023-11-21T05:53:46;24.30;99.90
19908;DHT22;10116;53.112;7.356;2023-11-21T05:56:12;24.30;99.90
19908;DHT22;10116;53.112;7.356;2023-11-21T05:58:39;24.30;99.90
19908;DHT22;10116;53.112;7.356;2023-11-21T06:01:05;24.30;99.90
19908;DHT22;10116;53.112;7.356;2023-11-21T06:03:33;24.30;99.90
19908;DHT22;10116;53.112;7.356;2023-11-21T06:05:58;24.30;99.90
19908;DHT22;10116;53.112;7.356;2023-11-21T06:08:24;24.40;99.90
19908;DHT22;10116;53.112;7.356;2023-11-21T06:10:50;24.40;99.90
19908;DHT22;10116;53.112;7.356;2023-11-21T06:13:15;24.40;99.90
19908;DHT22;10116;53.112;7.356;2023-11-21T06:15:41;24.40;99.90
19908;DHT22;10116;53.112;7.356;2023-11-21T06:18:07;24.40;99.90
19908;DHT22;10116;53.112;7.356;2023-11-21T06:20:35;24.40;99.90
19908;DHT22;10116;53.112;7.356;2023-11-21T06:23:02;24.40;99.90
19908;DHT22;10116;53.112;7.356;2023-11-21T06:25:29;24.40;99.90
19908;DHT22;10116;53.112;7.356;2023-11-21T06:27:58;24.40;99.90
19908;DHT22;10116;53.112;7.356;2023-11-21T06:30:24;24.40;99.90
19908;DHT22;10116;53.112;7.356;2023-11-21T06:32:49;24.40;99.90
19908;DHT22;10116;53.112;7.356;2023-11-21T06:35:16;24.40;99.90
19908;DHT22;10116;53.112;7.356;2023-11-21T06:37:41;24.40;99.90
19908;DHT22;10116;53.112;7.356;2023-11-21T06:40:12;24.40;99.90
19908;DHT22;10116;53.112;7.356;2023-11-21T06:42:39;24.40;99.90
19908;DHT22;10116;53.112;7.356;2023-11-21T06:45:08;24.40;99.90
19908;DHT22;10116;53.112;7.356;2023-11-21T06:47:36;24.30;99.90
19908;DHT22;10116;53.112;7.356;2023-11-21T06:50:02;24.40;99.90
19908;DHT22;10116;53.112;7.356;2023-11-21T06:52:27;24.30;99.90
19908;DHT22;10116;53.112;7.356;2023-11-21T06:54:53;24.30;99.90
19908;DHT22;10116;53.112;7.356;2023-11-21T06:57:18;24.30;99.90
19908;DHT22;10116;53.112;7.356;2023-11-21T06:59:44;24.30;99.90
19908;DHT22;10116;53.112;7.356;2023-11-21T07:02:10;24.30;99.90
19908;DHT22;10116;53.112;7.356;2023-11-21T07:04:36;24.20;99.90
19908;DHT22;10116;53.112;7.356;2023-11-21T07:07:05;24.20;99.90
19908;DHT22;10116;53.112;7.356;2023-11-21T07:09:32;24.10;99.90
19908;DHT22;10116;53.112;7.356;2023-11-21T07:11:58;24.10;99.90
19908;DHT22;10116;53.112;7.356;2023-11-21T07:14:23;23.70;99.90
19908;DHT22;10116;53.112;7.356;2023-11-21T07:16:49;23.50;99.90
19908;DHT22;10116;53.112;7.356;2023-11-21T07:19:14;23.40;99.90
19908;DHT22;10116;53.112;7.356;2023-11-21T07:21:40;23.30;99.90
19908;DHT22;10116;53.112;7.356;2023-11-21T07:24:07;23.30;99.90
19908;DHT22;10116;53.112;7.356;2023-11-21T07:26:33;23.30;99.90
19908;DHT22;10116;53.112;7.356;2023-11-21T07:29:00;23.30;99.90
19908;DHT22;10116;53.112;7.356;2023-11-21T07:31:26;23.30;99.90
19908;DHT22;10116;53.112;7.356;2023-11-21T07:33:51;23.30;99.90
19908;DHT22;10116;53.112;7.356;2023-11-21T07:36:19;23.30;99.90
19908;DHT22;10116;53.112;7.356;2023-11-21T07:38:46;23.30;99.90
19908;DHT22;10116;53.112;7.356;2023-11-21T07:41:11;23.30;99.90
19908;DHT22;10116;53.112;7.356;2023-11-21T07:43:41;23.30;99.90
19908;DHT22;10116;53.112;7.356;2023-11-21T07:46:07;23.30;99.90
19908;DHT22;10116;53.112;7.356;2023-11-21T07:48:34;23.20;99.90
19908;DHT22;10116;53.112;7.356;2023-11-21T07:51:01;23.30;99.90
19908;DHT22;10116;53.112;7.356;2023-11-21T07:53:29;23.30;99.90
19908;DHT22;10116;53.112;7.356;2023-11-21T07:55:56;23.40;99.90
19908;DHT22;10116;53.112;7.356;2023-11-21T07:58:22;23.40;99.90
19908;DHT22;10116;53.112;7.356;2023-11-21T08:00:48;23.40;99.90
19908;DHT22;10116;53.112;7.356;2023-11-21T08:03:14;23.50;99.90
19908;DHT22;10116;53.112;7.356;2023-11-21T08:05:40;23.50;99.90
19908;DHT22;10116;53.112;7.356;2023-11-21T08:08:06;23.50;99.90
19908;DHT22;10116;53.112;7.356;2023-11-21T08:10:31;23.50;99.90
19908;DHT22;10116;53.112;7.356;2023-11-21T08:12:57;23.50;99.90
19908;DHT22;10116;53.112;7.356;2023-11-21T08:15:23;23.50;99.90
19908;DHT22;10116;53.112;7.356;2023-11-21T08:17:49;23.60;99.90
19908;DHT22;10116;53.112;7.356;2023-11-21T08:20:15;23.60;99.90
19908;DHT22;10116;53.112;7.356;2023-11-21T08:22:44;23.60;99.90
19908;DHT22;10116;53.112;7.356;2023-11-21T08:25:10;23.60;99.90
19908;DHT22;10116;53.112;7.356;2023-11-21T08:27:36;23.60;99.90
19908;DHT22;10116;53.112;7.356;2023-11-21T08:30:02;22.90;99.90
19908;DHT22;10116;53.112;7.356;2023-11-21T08:32:29;22.60;99.90
19908;DHT22;10116;53.112;7.356;2023-11-21T08:34:57;22.50;99.90
19908;DHT22;10116;53.112;7.356;2023-11-21T08:37:23;22.60;99.90
19908;DHT22;10116;53.112;7.356;2023-11-21T08:39:49;22.60;99.90
19908;DHT22;10116;53.112;7.356;2023-11-21T08:42:15;22.60;99.90
19908;DHT22;10116;53.112;7.356;2023-11-21T08:44:41;22.70;99.90
19908;DHT22;10116;53.112;7.356;2023-11-21T08:47:07;22.80;99.90
19908;DHT22;10116;53.112;7.356;2023-11-21T08:49:32;22.80;99.90
19908;DHT22;10116;53.112;7.356;2023-11-21T08:51:58;22.80;99.90
19908;DHT22;10116;53.112;7.356;2023-11-21T08:54:25;22.80;99.90
19908;DHT22;10116;53.112;7.356;2023-11-21T08:56:54;22.90;99.90
19908;DHT22;10116;53.112;7.356;2023-11-21T08:59:20;22.90;99.90
19908;DHT22;10116;53.112;7.356;2023-11-21T09:01:46;23.00;99.90
19908;DHT22;10116;53.112;7.356;2023-11-21T09:04:12;23.00;99.90
19908;DHT22;10116;53.112;7.356;2023-11-21T09:06:39;22.60;99.90
19908;DHT22;10116;53.112;7.356;2023-11-21T09:09:05;22.40;99.90
19908;DHT22;10116;53.112;7.356;2023-11-21T09:11:32;22.40;99.90
19908;DHT22;10116;53.112;7.356;2023-11-21T09:13:59;22.30;99.90
19908;DHT22;10116;53.112;7.356;2023-11-21T09:16:25;22.40;99.90
19908;DHT22;10116;53.112;7.356;2023-11-21T09:18:51;22.40;99.90
19908;DHT22;10116;53.112;7.356;2023-11-21T09:21:17;22.40;99.90
19908;DHT22;10116;53.112;7.356;2023-11-21T09:23:45;22.50;99.90
19908;DHT22;10116;53.112;7.356;2023-11-21T09:26:11;22.50;99.90
19908;DHT22;10116;53.112;7.356;2023-11-21T09:28:37;22.50;99.90
19908;DHT22;10116;53.112;7.356;2023-11-21T09:31:05;22.50;99.90
19908;DHT22;10116;53.112;7.356;2023-11-21T09:33:30;22.50;99.90
19908;DHT22;10116;53.112;7.356;2023-11-21T09:35:57;22.50;99.90
19908;DHT22;10116;53.112;7.356;2023-11-21T09:38:23;22.60;99.90
19908;DHT22;10116;53.112;7.356;2023-11-21T09:40:48;22.50;99.90
19908;DHT22;10116;53.112;7.356;2023-11-21T09:43:18;22.50;99.90
19908;DHT22;10116;53.112;7.356;2023-11-21T09:45:54;22.60;99.90
19908;DHT22;10116;53.112;7.356;2023-11-21T09:48:23;22.60;99.90
19908;DHT22;10116;53.112;7.356;2023-11-21T09:50:50;22.70;99.90
19908;DHT22;10116;53.112;7.356;2023-11-21T09:53:17;22.70;99.90
19908;DHT22;10116;53.112;7.356;2023-11-21T09:55:45;22.70;99.90
19908;DHT22;10116;53.112;7.356;2023-11-21T09:58:12;22.80;99.90
19908;DHT22;10116;53.112;7.356;2023-11-21T10:00:45;22.80;99.90
19908;DHT22;10116;53.112;7.356;2023-11-21T10:03:11;22.80;99.90
19908;DHT22;10116;53.112;7.356;2023-11-21T10:05:38;22.30;99.90
19908;DHT22;10116;53.112;7.356;2023-11-21T10:08:08;22.20;99.90
19908;DHT22;10116;53.112;7.356;2023-11-21T10:10:36;22.10;99.90
19908;DHT22;10116;53.112;7.356;2023-11-21T10:13:04;22.00;99.90
19908;DHT22;10116;53.112;7.356;2023-11-21T10:15:34;22.00;99.90
19908;DHT22;10116;53.112;7.356;2023-11-21T10:18:05;22.00;99.90
19908;DHT22;10116;53.112;7.356;2023-11-21T10:20:32;22.00;99.90
19908;DHT22;10116;53.112;7.356;2023-11-21T10:23:03;22.00;99.90
19908;DHT22;10116;53.112;7.356;2023-11-21T10:25:32;22.00;99.90
19908;DHT22;10116;53.112;7.356;2023-11-21T10:27:59;22.00;99.90
19908;DHT22;10116;53.112;7.356;2023-11-21T10:30:33;22.10;99.90
19908;DHT22;10116;53.112;7.356;2023-11-21T10:33:02;22.10;99.90
19908;DHT22;10116;53.112;7.356;2023-11-21T10:35:47;22.10;99.90
19908;DHT22;10116;53.112;7.356;2023-11-21T10:38:17;22.10;99.90
19908;DHT22;10116;53.112;7.356;2023-11-21T10:40:44;22.20;99.90
19908;DHT22;10116;53.112;7.356;2023-11-21T10:43:10;22.20;99.90
19908;DHT22;10116;53.112;7.356;2023-11-21T10:45:39;22.20;99.90
19908;DHT22;10116;53.112;7.356;2023-11-21T10:48:06;22.20;99.90
19908;DHT22;10116;53.112;7.356;2023-11-21T10:50:37;22.20;99.90
19908;DHT22;10116;53.112;7.356;2023-11-21T10:53:03;22.20;99.90
19908;DHT22;10116;53.112;7.356;2023-11-21T10:55:30;22.20;99.90
19908;DHT22;10116;53.112;7.356;2023-11-21T10:57:59;22.20;99.90
19908;DHT22;10116;53.112;7.356;2023-11-21T11:00:27;22.20;99.90
19908;DHT22;10116;53.112;7.356;2023-11-21T11:02:53;22.20;99.90
19908;DHT22;10116;53.112;7.356;2023-11-21T11:05:26;22.20;99.90
19908;DHT22;10116;53.112;7.356;2023-11-21T11:08:05;22.20;99.90
19908;DHT22;10116;53.112;7.356;2023-11-21T11:10:31;22.20;99.90
19908;DHT22;10116;53.112;7.356;2023-11-21T11:12:58;22.30;99.90
19908;DHT22;10116;53.112;7.356;2023-11-21T11:15:25;22.30;99.90
19908;DHT22;10116;53.112;7.356;2023-11-21T11:17:52;22.30;99.90
19908;DHT22;10116;53.112;7.356;2023-11-21T11:20:27;22.40;99.90
19908;DHT22;10116;53.112;7.356;2023-11-21T11:23:19;22.40;99.90
19908;DHT22;10116;53.112;7.356;2023-11-21T11:31:14;22.20;99.90
19908;DHT22;10116;53.112;7.356;2023-11-21T11:33:43;22.20;99.90
19908;DHT22;10116;53.112;7.356;2023-11-21T11:37:17;22.30;99.90
19908;DHT22;10116;53.112;7.356;2023-11-21T11:42:07;22.10;99.90
19908;DHT22;10116;53.112;7.356;2023-11-21T11:47:26;22.30;99.90
19908;DHT22;10116;53.112;7.356;2023-11-21T11:52:42;22.40;99.90
19908;DHT22;10116;53.112;7.356;2023-11-21T11:55:11;22.50;99.90
19908;DHT22;10116;53.112;7.356;2023-11-21T11:57:38;22.50;99.90
19908;DHT22;10116;53.112;7.356;2023-11-21T12:00:08;22.50;99.90
19908;DHT22;10116;53.112;7.356;2023-11-21T12:02:38;22.60;99.90
19908;DHT22;10116;53.112;7.356;2023-11-21T12:05:12;22.60;99.90
19908;DHT22;10116;53.112;7.356;2023-11-21T12:08:03;22.70;99.90
19908;DHT22;10116;53.112;7.356;2023-11-21T12:10:30;22.70;99.90
19908;DHT22;10116;53.112;7.356;2023-11-21T12:13:02;22.80;99.90
19908;DHT22;10116;53.112;7.356;2023-11-21T12:15:28;22.80;99.90
19908;DHT22;10116;53.112;7.356;2023-11-21T12:17:55;22.80;99.90
19908;DHT22;10116;53.112;7.356;2023-11-21T12:20:23;22.80;99.90
19908;DHT22;10116;53.112;7.356;2023-11-21T12:22:59;22.70;99.90
19908;DHT22;10116;53.112;7.356;2023-11-21T12:25:29;22.60;99.90
19908;DHT22;10116;53.112;7.356;2023-11-21T12:27:57;22.50;99.90
19908;DHT22;10116;53.112;7.356;2023-11-21T12:30:25;22.50;99.90
19908;DHT22;10116;53.112;7.356;2023-11-21T12:32:55;22.50;99.90
19908;DHT22;10116;53.112;7.356;2023-11-21T12:35:27;22.50;99.90
19908;DHT22;10116;53.112;7.356;2023-11-21T12:37:55;22.50;99.90
19908;DHT22;10116;53.112;7.356;2023-11-21T12:40:22;22.50;99.90
19908;DHT22;10116;53.112;7.356;2023-11-21T12:42:51;22.50;99.90
19908;DHT22;10116;53.112;7.356;2023-11-21T12:50:30;22.50;99.90
19908;DHT22;10116;53.112;7.356;2023-11-21T12:53:04;22.50;99.90
19908;DHT22;10116;53.112;7.356;2023-11-21T12:55:32;22.50;99.90
19908;DHT22;10116;53.112;7.356;2023-11-21T12:58:00;22.50;99.90
19908;DHT22;10116;53.112;7.356;2023-11-21T13:00:36;22.40;99.90
19908;DHT22;10116;53.112;7.356;2023-11-21T13:03:04;22.40;99.90
19908;DHT22;10116;53.112;7.356;2023-11-21T13:05:30;22.40;99.90
19908;DHT22;10116;53.112;7.356;2023-11-21T13:07:58;22.30;99.90
19908;DHT22;10116;53.112;7.356;2023-11-21T13:10:25;22.30;99.90
19908;DHT22;10116;53.112;7.356;2023-11-21T13:12:55;22.30;99.90
19908;DHT22;10116;53.112;7.356;2023-11-21T13:15:23;22.30;99.90
19908;DHT22;10116;53.112;7.356;2023-11-21T13:17:50;22.30;99.90
19908;DHT22;10116;53.112;7.356;2023-11-21T13:20:17;22.30;99.90
19908;DHT22;10116;53.112;7.356;2023-11-21T13:22:50;22.30;99.90
19908;DHT22;10116;53.112;7.356;2023-11-21T13:25:23;22.40;99.90
19908;DHT22;10116;53.112;7.356;2023-11-21T13:27:49;22.40;99.90
19908;DHT22;10116;53.112;7.356;2023-11-21T13:30:16;22.40;99.90
19908;DHT22;10116;53.112;7.356;2023-11-21T13:32:43;22.40;99.90
19908;DHT22;10116;53.112;7.356;2023-11-21T13:35:10;22.50;99.90
19908;DHT22;10116;53.112;7.356;2023-11-21T13:37:47;22.40;99.90
19908;DHT22;10116;53.112;7.356;2023-11-21T13:40:19;22.40;99.90
19908;DHT22;10116;53.112;7.356;2023-11-21T13:42:48;22.40;99.90
19908;DHT22;10116;53.112;7.356;2023-11-21T13:45:14;22.30;99.90
19908;DHT22;10116;53.112;7.356;2023-11-21T13:47:40;22.30;99.90
19908;DHT22;10116;53.112;7.356;2023-11-21T13:50:06;22.30;99.90
19908;DHT22;10116;53.112;7.356;2023-11-21T13:52:43;22.30;99.90
19908;DHT22;10116;53.112;7.356;2023-11-21T13:55:10;22.30;99.90
19908;DHT22;10116;53.112;7.356;2023-11-21T13:57:44;22.30;99.90
19908;DHT22;10116;53.112;7.356;2023-11-21T14:00:17;22.20;99.90
19908;DHT22;10116;53.112;7.356;2023-11-21T14:03:03;22.20;99.90
19908;DHT22;10116;53.112;7.356;2023-11-21T14:05:34;22.20;99.90
19908;DHT22;10116;53.112;7.356;2023-11-21T14:08:00;22.20;99.90
19908;DHT22;10116;53.112;7.356;2023-11-21T14:10:33;22.30;99.90
19908;DHT22;10116;53.112;7.356;2023-11-21T14:13:06;22.30;99.90
19908;DHT22;10116;53.112;7.356;2023-11-21T14:15:32;22.40;99.90
19908;DHT22;10116;53.112;7.356;2023-11-21T14:18:02;22.40;99.90
19908;DHT22;10116;53.112;7.356;2023-11-21T14:20:33;22.50;99.90
19908;DHT22;10116;53.112;7.356;2023-11-21T14:22:58;22.60;99.90
19908;DHT22;10116;53.112;7.356;2023-11-21T14:25:24;22.70;99.90
19908;DHT22;10116;53.112;7.356;2023-11-21T14:27:50;22.80;99.90
19908;DHT22;10116;53.112;7.356;2023-11-21T14:30:16;22.80;99.90
19908;DHT22;10116;53.112;7.356;2023-11-21T14:32:44;22.90;99.90
19908;DHT22;10116;53.112;7.356;2023-11-21T14:35:10;22.90;99.90
19908;DHT22;10116;53.112;7.356;2023-11-21T14:37:36;23.00;99.90
19908;DHT22;10116;53.112;7.356;2023-11-21T14:40:01;23.00;99.90
19908;DHT22;10116;53.112;7.356;2023-11-21T14:42:30;23.00;99.90
19908;DHT22;10116;53.112;7.356;2023-11-21T14:44:55;23.10;99.90
19908;DHT22;10116;53.112;7.356;2023-11-21T14:47:25;23.10;99.90
19908;DHT22;10116;53.112;7.356;2023-11-21T14:49:52;23.10;99.90
19908;DHT22;10116;53.112;7.356;2023-11-21T14:52:21;23.10;99.90
19908;DHT22;10116;53.112;7.356;2023-11-21T14:55:03;23.10;99.90
19908;DHT22;10116;53.112;7.356;2023-11-21T14:57:47;23.10;99.90
19908;DHT22;10116;53.112;7.356;2023-11-21T15:00:20;23.10;99.90
19908;DHT22;10116;53.112;7.356;2023-11-21T15:03:04;23.10;99.90
19908;DHT22;10116;53.112;7.356;2023-11-21T15:05:30;23.10;99.90
19908;DHT22;10116;53.112;7.356;2023-11-21T15:07:56;23.10;99.90
19908;DHT22;10116;53.112;7.356;2023-11-21T15:10:34;23.00;99.90
19908;DHT22;10116;53.112;7.356;2023-11-21T15:13:13;23.00;99.90
19908;DHT22;10116;53.112;7.356;2023-11-21T15:15:40;23.00;99.90
19908;DHT22;10116;53.112;7.356;2023-11-21T15:18:06;23.00;99.90
19908;DHT22;10116;53.112;7.356;2023-11-21T15:20:32;23.00;99.90
19908;DHT22;10116;53.112;7.356;2023-11-21T15:22:58;22.90;99.90
19908;DHT22;10116;53.112;7.356;2023-11-21T15:25:23;22.90;99.90
19908;DHT22;10116;53.112;7.356;2023-11-21T15:27:49;22.90;99.90
19908;DHT22;10116;53.112;7.356;2023-11-21T15:30:16;22.90;99.90
19908;DHT22;10116;53.112;7.356;2023-11-21T15:32:45;22.90;99.90
19908;DHT22;10116;53.112;7.356;2023-11-21T15:35:11;22.90;99.90
19908;DHT22;10116;53.112;7.356;2023-11-21T15:37:40;22.90;99.90
19908;DHT22;10116;53.112;7.356;2023-11-21T15:40:06;23.00;99.90
19908;DHT22;10116;53.112;7.356;2023-11-21T15:42:34;23.00;99.90
19908;DHT22;10116;53.112;7.356;2023-11-21T15:45:01;23.00;99.90
19908;DHT22;10116;53.112;7.356;2023-11-21T15:47:27;23.00;99.90
19908;DHT22;10116;53.112;7.356;2023-11-21T15:49:53;23.10;99.90
19908;DHT22;10116;53.112;7.356;2023-11-21T15:52:18;23.10;99.90